sensor_id;sensor_type;location;lat;lon;timestamp;pressure;altitude;pressure_sealevel;temperature
31528;BMP280;10206;48.012;10.030;2023-03-24T00:00:13;94114.38;;;14.25
31528;BMP280;10206;48.012;10.030;2023-03-24T00:02:41;94109.69;;;14.14
31528;BMP280;10206;48.012;10.030;2023-03-24T00:05:21;94116.41;;;14.25
31528;BMP280;10206;48.012;10.030;2023-03-24T00:07:48;94118.94;;;14.21
31528;BMP280;10206;48.012;10.030;2023-03-24T00:10:17;94122.13;;;14.29
31528;BMP280;10206;48.012;10.030;2023-03-24T00:12:46;94122.63;;;14.25
31528;BMP280;10206;48.012;10.030;2023-03-24T00:15:18;94121.97;;;13.99
31528;BMP280;10206;48.012;10.030;2023-03-24T00:17:46;94153.00;;;14.29
31528;BMP280;10206;48.012;10.030;2023-03-24T00:20:15;94156.41;;;14.41
31528;BMP280;10206;48.012;10.030;2023-03-24T00:22:45;94155.50;;;14.12
31528;BMP280;10206;48.012;10.030;2023-03-24T00:25:17;94154.03;;;14.49
31528;BMP280;10206;48.012;10.030;2023-03-24T00:27:44;94160.97;;;14.77
31528;BMP280;10206;48.012;10.030;2023-03-24T00:30:11;94145.03;;;14.60
31528;BMP280;10206;48.012;10.030;2023-03-24T00:32:38;94137.97;;;14.30
31528;BMP280;10206;48.012;10.030;2023-03-24T00:35:07;94131.06;;;14.43
31528;BMP280;10206;48.012;10.030;2023-03-24T00:37:38;94140.41;;;14.24
31528;BMP280;10206;48.012;10.030;2023-03-24T00:40:06;94143.47;;;14.44
31528;BMP280;10206;48.012;10.030;2023-03-24T00:42:35;94134.81;;;14.22
31528;BMP280;10206;48.012;10.030;2023-03-24T00:45:03;94135.13;;;14.28
31528;BMP280;10206;48.012;10.030;2023-03-24T00:47:32;94122.66;;;14.52
31528;BMP280;10206;48.012;10.030;2023-03-24T00:50:03;94116.28;;;14.48
31528;BMP280;10206;48.012;10.030;2023-03-24T00:52:30;94125.88;;;14.49
31528;BMP280;10206;48.012;10.030;2023-03-24T00:55:00;94118.50;;;14.51
31528;BMP280;10206;48.012;10.030;2023-03-24T00:57:30;94121.41;;;14.42
31528;BMP280;10206;48.012;10.030;2023-03-24T01:00:02;94115.31;;;14.30
31528;BMP280;10206;48.012;10.030;2023-03-24T01:02:39;94118.69;;;14.42
31528;BMP280;10206;48.012;10.030;2023-03-24T01:05:06;94108.41;;;14.42
31528;BMP280;10206;48.012;10.030;2023-03-24T01:07:34;94110.13;;;14.49
31528;BMP280;10206;48.012;10.030;2023-03-24T01:10:00;94119.09;;;14.50
31528;BMP280;10206;48.012;10.030;2023-03-24T01:12:30;94112.09;;;14.47
31528;BMP280;10206;48.012;10.030;2023-03-24T01:14:58;94107.41;;;14.36
31528;BMP280;10206;48.012;10.030;2023-03-24T01:17:25;94107.56;;;14.26
31528;BMP280;10206;48.012;10.030;2023-03-24T01:19:55;94102.94;;;14.29
31528;BMP280;10206;48.012;10.030;2023-03-24T01:22:22;94103.56;;;14.41
31528;BMP280;10206;48.012;10.030;2023-03-24T01:24:52;94103.75;;;14.45
31528;BMP280;10206;48.012;10.030;2023-03-24T01:27:18;94098.63;;;14.26
31528;BMP280;10206;48.012;10.030;2023-03-24T01:29:44;94098.94;;;14.18
31528;BMP280;10206;48.012;10.030;2023-03-24T01:32:12;94088.72;;;13.93
31528;BMP280;10206;48.012;10.030;2023-03-24T01:34:38;94097.81;;;14.23
31528;BMP280;10206;48.012;10.030;2023-03-24T01:37:04;94091.81;;;14.27
31528;BMP280;10206;48.012;10.030;2023-03-24T01:39:30;94092.22;;;14.21
31528;BMP280;10206;48.012;10.030;2023-03-24T01:41:57;94069.22;;;14.01
31528;BMP280;10206;48.012;10.030;2023-03-24T01:44:32;94064.22;;;13.84
31528;BMP280;10206;48.012;10.030;2023-03-24T01:46:59;94063.69;;;14.26
31528;BMP280;10206;48.012;10.030;2023-03-24T01:49:31;94060.13;;;14.37
31528;BMP280;10206;48.012;10.030;2023-03-24T01:51:59;94057.31;;;14.35
31528;BMP280;10206;48.012;10.030;2023-03-24T01:54:37;94052.63;;;14.51
31528;BMP280;10206;48.012;10.030;2023-03-24T01:59:46;94053.25;;;14.63
31528;BMP280;10206;48.012;10.030;2023-03-24T02:02:13;94048.97;;;14.60
31528;BMP280;10206;48.012;10.030;2023-03-24T02:04:46;94037.66;;;14.68
31528;BMP280;10206;48.012;10.030;2023-03-24T02:09:48;94032.34;;;14.72
31528;BMP280;10206;48.012;10.030;2023-03-24T02:12:14;94023.03;;;14.63
31528;BMP280;10206;48.012;10.030;2023-03-24T02:14:41;94020.09;;;14.59
31528;BMP280;10206;48.012;10.030;2023-03-24T02:42:18;93989.97;;;14.61
31528;BMP280;10206;48.012;10.030;2023-03-24T02:44:59;93994.47;;;14.68
31528;BMP280;10206;48.012;10.030;2023-03-24T02:58:48;93991.47;;;14.35
31528;BMP280;10206;48.012;10.030;2023-03-24T03:01:41;93980.28;;;14.31
31528;BMP280;10206;48.012;10.030;2023-03-24T03:04:11;93987.38;;;14.23
31528;BMP280;10206;48.012;10.030;2023-03-24T03:06:42;93980.75;;;14.00
31528;BMP280;10206;48.012;10.030;2023-03-24T03:09:13;93984.03;;;14.11
31528;BMP280;10206;48.012;10.030;2023-03-24T03:11:43;93985.03;;;14.03
31528;BMP280;10206;48.012;10.030;2023-03-24T03:14:23;93985.25;;;14.07
31528;BMP280;10206;48.012;10.030;2023-03-24T03:17:09;93989.13;;;14.02
31528;BMP280;10206;48.012;10.030;2023-03-24T03:19:41;93986.69;;;14.09
31528;BMP280;10206;48.012;10.030;2023-03-24T03:22:14;93978.03;;;14.00
31528;BMP280;10206;48.012;10.030;2023-03-24T03:24:43;93984.03;;;13.97
31528;BMP280;10206;48.012;10.030;2023-03-24T03:27:19;93992.59;;;14.03
31528;BMP280;10206;48.012;10.030;2023-03-24T03:29:50;93994.09;;;14.20
31528;BMP280;10206;48.012;10.030;2023-03-24T03:32:29;94010.84;;;14.26
31528;BMP280;10206;48.012;10.030;2023-03-24T03:37:46;94012.34;;;14.42
31528;BMP280;10206;48.012;10.030;2023-03-24T03:40:57;94015.72;;;14.54
31528;BMP280;10206;48.012;10.030;2023-03-24T03:43:23;94024.16;;;14.58
31528;BMP280;10206;48.012;10.030;2023-03-24T03:45:49;94018.28;;;14.64
31528;BMP280;10206;48.012;10.030;2023-03-24T03:48:16;94022.56;;;14.53
31528;BMP280;10206;48.012;10.030;2023-03-24T03:50:43;94027.19;;;14.64
31528;BMP280;10206;48.012;10.030;2023-03-24T03:53:12;94028.72;;;14.67
31528;BMP280;10206;48.012;10.030;2023-03-24T03:55:40;94023.75;;;14.50
31528;BMP280;10206;48.012;10.030;2023-03-24T03:58:07;94020.59;;;14.69
31528;BMP280;10206;48.012;10.030;2023-03-24T04:00:34;94032.06;;;14.79
31528;BMP280;10206;48.012;10.030;2023-03-24T04:06:16;94028.72;;;14.67
31528;BMP280;10206;48.012;10.030;2023-03-24T04:11:46;94035.75;;;14.70
31528;BMP280;10206;48.012;10.030;2023-03-24T04:17:06;94024.22;;;14.74
31528;BMP280;10206;48.012;10.030;2023-03-24T04:25:03;94023.31;;;14.83
31528;BMP280;10206;48.012;10.030;2023-03-24T04:27:57;94018.44;;;14.68
31528;BMP280;10206;48.012;10.030;2023-03-24T04:30:40;94015.78;;;14.83
31528;BMP280;10206;48.012;10.030;2023-03-24T04:33:17;93995.09;;;14.53
31528;BMP280;10206;48.012;10.030;2023-03-24T04:36:26;93984.63;;;14.63
31528;BMP280;10206;48.012;10.030;2023-03-24T04:38:55;93981.31;;;14.24
31528;BMP280;10206;48.012;10.030;2023-03-24T04:41:25;93961.28;;;14.08
31528;BMP280;10206;48.012;10.030;2023-03-24T04:43:52;93967.16;;;14.16
31528;BMP280;10206;48.012;10.030;2023-03-24T04:46:20;93954.91;;;14.17
31528;BMP280;10206;48.012;10.030;2023-03-24T04:48:47;93938.72;;;14.23
31528;BMP280;10206;48.012;10.030;2023-03-24T04:51:18;93932.44;;;14.07
31528;BMP280;10206;48.012;10.030;2023-03-24T04:53:45;93933.84;;;14.08
31528;BMP280;10206;48.012;10.030;2023-03-24T04:56:36;93923.59;;;13.95
31528;BMP280;10206;48.012;10.030;2023-03-24T04:59:03;93922.41;;;13.98
31528;BMP280;10206;48.012;10.030;2023-03-24T05:01:29;93921.38;;;13.78
31528;BMP280;10206;48.012;10.030;2023-03-24T05:03:57;93921.38;;;13.78
31528;BMP280;10206;48.012;10.030;2023-03-24T05:06:23;93928.34;;;13.54
31528;BMP280;10206;48.012;10.030;2023-03-24T05:08:50;93928.56;;;13.71
31528;BMP280;10206;48.012;10.030;2023-03-24T05:11:18;93933.84;;;13.94
31528;BMP280;10206;48.012;10.030;2023-03-24T05:13:45;93927.28;;;13.99
31528;BMP280;10206;48.012;10.030;2023-03-24T05:16:12;93923.78;;;13.72
31528;BMP280;10206;48.012;10.030;2023-03-24T05:18:38;93928.78;;;13.89
31528;BMP280;10206;48.012;10.030;2023-03-24T05:21:05;93920.16;;;14.08
31528;BMP280;10206;48.012;10.030;2023-03-24T05:23:31;93921.16;;;14.01
31528;BMP280;10206;48.012;10.030;2023-03-24T05:25:57;93921.81;;;13.99
31528;BMP280;10206;48.012;10.030;2023-03-24T05:28:23;93925.03;;;13.69
31528;BMP280;10206;48.012;10.030;2023-03-24T05:30:50;93932.66;;;14.11
31528;BMP280;10206;48.012;10.030;2023-03-24T05:33:16;93925.03;;;14.23
31528;BMP280;10206;48.012;10.030;2023-03-24T05:35:42;93937.53;;;14.13
31528;BMP280;10206;48.012;10.030;2023-03-24T05:38:08;93946.88;;;14.35
31528;BMP280;10206;48.012;10.030;2023-03-24T05:40:35;93942.16;;;14.37
31528;BMP280;10206;48.012;10.030;2023-03-24T05:43:02;93961.06;;;14.45
31528;BMP280;10206;48.012;10.030;2023-03-24T05:45:28;93965.59;;;14.54
31528;BMP280;10206;48.012;10.030;2023-03-24T05:47:55;93975.31;;;14.28
31528;BMP280;10206;48.012;10.030;2023-03-24T05:50:21;93979.16;;;14.23
31528;BMP280;10206;48.012;10.030;2023-03-24T05:52:49;93992.97;;;14.25
31528;BMP280;10206;48.012;10.030;2023-03-24T05:55:16;94005.59;;;14.30
31528;BMP280;10206;48.012;10.030;2023-03-24T05:57:42;94027.22;;;14.37
31528;BMP280;10206;48.012;10.030;2023-03-24T06:00:09;94030.13;;;14.55
31528;BMP280;10206;48.012;10.030;2023-03-24T06:02:39;94030.97;;;14.57
31528;BMP280;10206;48.012;10.030;2023-03-24T06:05:05;94043.47;;;14.60
31528;BMP280;10206;48.012;10.030;2023-03-24T06:07:33;94039.59;;;14.79
31528;BMP280;10206;48.012;10.030;2023-03-24T06:09:59;94048.13;;;14.71
31528;BMP280;10206;48.012;10.030;2023-03-24T06:12:28;94051.88;;;14.78
31528;BMP280;10206;48.012;10.030;2023-03-24T06:14:56;94046.09;;;14.85
31528;BMP280;10206;48.012;10.030;2023-03-24T06:17:23;94063.94;;;15.00
31528;BMP280;10206;48.012;10.030;2023-03-24T06:19:49;94050.56;;;14.93
31528;BMP280;10206;48.012;10.030;2023-03-24T06:22:19;94054.16;;;15.11
31528;BMP280;10206;48.012;10.030;2023-03-24T06:24:46;94049.16;;;15.21
31528;BMP280;10206;48.012;10.030;2023-03-24T06:27:13;94057.59;;;15.25
31528;BMP280;10206;48.012;10.030;2023-03-24T06:29:39;94061.03;;;14.96
31528;BMP280;10206;48.012;10.030;2023-03-24T06:32:09;94057.16;;;14.88
31528;BMP280;10206;48.012;10.030;2023-03-24T06:34:35;94059.38;;;15.05
31528;BMP280;10206;48.012;10.030;2023-03-24T06:37:03;94063.09;;;15.25
31528;BMP280;10206;48.012;10.030;2023-03-24T06:39:30;94062.69;;;15.17
31528;BMP280;10206;48.012;10.030;2023-03-24T06:41:56;94063.31;;;15.15
31528;BMP280;10206;48.012;10.030;2023-03-24T06:44:22;94068.88;;;14.88
31528;BMP280;10206;48.012;10.030;2023-03-24T06:46:48;94077.66;;;15.14
31528;BMP280;10206;48.012;10.030;2023-03-24T06:49:14;94077.47;;;15.10
31528;BMP280;10206;48.012;10.030;2023-03-24T06:51:40;94078.81;;;14.95
31528;BMP280;10206;48.012;10.030;2023-03-24T06:54:06;94079.69;;;15.13
31528;BMP280;10206;48.012;10.030;2023-03-24T06:56:33;94069.56;;;14.88
31528;BMP280;10206;48.012;10.030;2023-03-24T06:58:59;94065.63;;;15.21
31528;BMP280;10206;48.012;10.030;2023-03-24T07:01:26;94069.53;;;15.16
31528;BMP280;10206;48.012;10.030;2023-03-24T07:03:52;94071.72;;;15.33
31528;BMP280;10206;48.012;10.030;2023-03-24T07:06:19;94073.22;;;15.36
31528;BMP280;10206;48.012;10.030;2023-03-24T07:08:48;94064.97;;;15.36
31528;BMP280;10206;48.012;10.030;2023-03-24T07:11:14;94068.25;;;14.49
31528;BMP280;10206;48.012;10.030;2023-03-24T07:13:41;94069.84;;;14.95
31528;BMP280;10206;48.012;10.030;2023-03-24T07:16:07;94073.88;;;15.21
31528;BMP280;10206;48.012;10.030;2023-03-24T07:18:33;94076.25;;;15.42
31528;BMP280;10206;48.012;10.030;2023-03-24T07:20:59;94082.81;;;15.50
31528;BMP280;10206;48.012;10.030;2023-03-24T07:23:26;94087.56;;;15.63
31528;BMP280;10206;48.012;10.030;2023-03-24T07:25:53;94082.63;;;15.46
31528;BMP280;10206;48.012;10.030;2023-03-24T07:28:19;94078.28;;;15.41
31528;BMP280;10206;48.012;10.030;2023-03-24T07:30:46;94086.53;;;15.41
31528;BMP280;10206;48.012;10.030;2023-03-24T07:33:12;94091.97;;;15.55
31528;BMP280;10206;48.012;10.030;2023-03-24T07:35:41;94090.19;;;15.61
31528;BMP280;10206;48.012;10.030;2023-03-24T07:38:08;94092.63;;;15.69
31528;BMP280;10206;48.012;10.030;2023-03-24T07:40:34;94084.13;;;15.79
31528;BMP280;10206;48.012;10.030;2023-03-24T07:43:02;94082.47;;;15.87
31528;BMP280;10206;48.012;10.030;2023-03-24T07:45:30;94077.59;;;16.01
31528;BMP280;10206;48.012;10.030;2023-03-24T07:47:56;94090.47;;;15.67
31528;BMP280;10206;48.012;10.030;2023-03-24T07:50:27;94093.91;;;16.13
31528;BMP280;10206;48.012;10.030;2023-03-24T07:52:53;94102.97;;;16.15
31528;BMP280;10206;48.012;10.030;2023-03-24T07:55:19;94113.19;;;16.28
31528;BMP280;10206;48.012;10.030;2023-03-24T07:57:47;94116.81;;;16.02
31528;BMP280;10206;48.012;10.030;2023-03-24T08:00:14;94111.16;;;16.13
31528;BMP280;10206;48.012;10.030;2023-03-24T08:02:48;94118.66;;;15.97
31528;BMP280;10206;48.012;10.030;2023-03-24T08:05:15;94121.31;;;15.80
31528;BMP280;10206;48.012;10.030;2023-03-24T08:07:51;94116.44;;;15.94
31528;BMP280;10206;48.012;10.030;2023-03-24T08:10:23;94119.88;;;15.20
31528;BMP280;10206;48.012;10.030;2023-03-24T08:12:49;94124.06;;;15.80
31528;BMP280;10206;48.012;10.030;2023-03-24T08:15:16;94111.63;;;15.20
31528;BMP280;10206;48.012;10.030;2023-03-24T08:17:43;94125.91;;;15.46
31528;BMP280;10206;48.012;10.030;2023-03-24T08:20:11;94119.03;;;15.31
31528;BMP280;10206;48.012;10.030;2023-03-24T08:22:41;94120.69;;;15.52
31528;BMP280;10206;48.012;10.030;2023-03-24T08:25:11;94124.97;;;15.55
31528;BMP280;10206;48.012;10.030;2023-03-24T08:27:38;94119.09;;;15.47
31528;BMP280;10206;48.012;10.030;2023-03-24T08:30:06;94130.38;;;14.97
31528;BMP280;10206;48.012;10.030;2023-03-24T08:32:34;94126.00;;;14.92
31528;BMP280;10206;48.012;10.030;2023-03-24T08:35:01;94136.09;;;15.43
31528;BMP280;10206;48.012;10.030;2023-03-24T08:37:29;94135.09;;;15.37
31528;BMP280;10206;48.012;10.030;2023-03-24T08:39:56;94145.53;;;14.98
31528;BMP280;10206;48.012;10.030;2023-03-24T08:42:24;94146.31;;;15.14
31528;BMP280;10206;48.012;10.030;2023-03-24T08:44:51;94139.78;;;15.34
31528;BMP280;10206;48.012;10.030;2023-03-24T08:47:17;94144.94;;;15.55
31528;BMP280;10206;48.012;10.030;2023-03-24T08:49:43;94148.94;;;15.68
31528;BMP280;10206;48.012;10.030;2023-03-24T08:52:10;94156.59;;;15.56
31528;BMP280;10206;48.012;10.030;2023-03-24T08:54:36;94162.44;;;15.48
31528;BMP280;10206;48.012;10.030;2023-03-24T08:57:02;94161.09;;;15.63
31528;BMP280;10206;48.012;10.030;2023-03-24T08:59:28;94170.75;;;15.21
31528;BMP280;10206;48.012;10.030;2023-03-24T09:01:54;94180.06;;;15.43
31528;BMP280;10206;48.012;10.030;2023-03-24T09:04:20;94184.97;;;15.18
31528;BMP280;10206;48.012;10.030;2023-03-24T09:06:46;94186.81;;;15.27
31528;BMP280;10206;48.012;10.030;2023-03-24T09:09:14;94196.28;;;15.37
31528;BMP280;10206;48.012;10.030;2023-03-24T09:11:40;94195.75;;;15.41
31528;BMP280;10206;48.012;10.030;2023-03-24T09:14:06;94188.06;;;15.10
31528;BMP280;10206;48.012;10.030;2023-03-24T09:16:32;94192.66;;;15.91
31528;BMP280;10206;48.012;10.030;2023-03-24T09:18:59;94196.22;;;15.64
31528;BMP280;10206;48.012;10.030;2023-03-24T09:21:25;94199.56;;;15.63
31528;BMP280;10206;48.012;10.030;2023-03-24T09:23:51;94200.44;;;15.81
31528;BMP280;10206;48.012;10.030;2023-03-24T09:26:17;94203.88;;;15.52
31528;BMP280;10206;48.012;10.030;2023-03-24T09:28:43;94196.34;;;16.11
31528;BMP280;10206;48.012;10.030;2023-03-24T09:31:10;94203.75;;;15.93
31528;BMP280;10206;48.012;10.030;2023-03-24T09:33:36;94221.03;;;15.80
31528;BMP280;10206;48.012;10.030;2023-03-24T09:36:03;94213.81;;;15.73
31528;BMP280;10206;48.012;10.030;2023-03-24T09:38:30;94220.50;;;16.13
31528;BMP280;10206;48.012;10.030;2023-03-24T09:40:59;94220.06;;;15.89
31528;BMP280;10206;48.012;10.030;2023-03-24T09:43:41;94220.53;;;15.99
31528;BMP280;10206;48.012;10.030;2023-03-24T09:46:14;94225.81;;;15.80
31528;BMP280;10206;48.012;10.030;2023-03-24T09:48:52;94229.09;;;16.05
31528;BMP280;10206;48.012;10.030;2023-03-24T09:51:24;94230.94;;;15.58
31528;BMP280;10206;48.012;10.030;2023-03-24T09:56:38;94221.44;;;15.61
31528;BMP280;10206;48.012;10.030;2023-03-24T10:01:42;94221.38;;;15.45
31528;BMP280;10206;48.012;10.030;2023-03-24T10:04:15;94218.91;;;15.94
31528;BMP280;10206;48.012;10.030;2023-03-24T10:06:42;94225.44;;;15.58
31528;BMP280;10206;48.012;10.030;2023-03-24T10:09:27;94209.44;;;15.97
31528;BMP280;10206;48.012;10.030;2023-03-24T10:15:05;94210.78;;;15.96
31528;BMP280;10206;48.012;10.030;2023-03-24T10:17:45;94192.31;;;16.75
31528;BMP280;10206;48.012;10.030;2023-03-24T10:20:38;94180.44;;;16.25
31528;BMP280;10206;48.012;10.030;2023-03-24T10:31:24;94145.75;;;16.65
31528;BMP280;10206;48.012;10.030;2023-03-24T10:33:52;94150.16;;;16.88
31528;BMP280;10206;48.012;10.030;2023-03-24T10:36:22;94146.66;;;17.54
31528;BMP280;10206;48.012;10.030;2023-03-24T10:38:50;94144.59;;;17.72
31528;BMP280;10206;48.012;10.030;2023-03-24T10:41:19;94134.44;;;17.59
31528;BMP280;10206;48.012;10.030;2023-03-24T10:43:48;94150.91;;;17.92
31528;BMP280;10206;48.012;10.030;2023-03-24T10:46:19;94146.19;;;18.14
31528;BMP280;10206;48.012;10.030;2023-03-24T10:48:48;94134.47;;;17.96
31528;BMP280;10206;48.012;10.030;2023-03-24T10:51:19;94132.28;;;18.29
31528;BMP280;10206;48.012;10.030;2023-03-24T10:53:46;94118.69;;;17.26
31528;BMP280;10206;48.012;10.030;2023-03-24T10:56:40;94119.16;;;17.56
31528;BMP280;10206;48.012;10.030;2023-03-24T11:04:40;94135.31;;;17.12
31528;BMP280;10206;48.012;10.030;2023-03-24T11:07:17;94129.97;;;17.50
31528;BMP280;10206;48.012;10.030;2023-03-24T11:10:06;94139.56;;;17.48
31528;BMP280;10206;48.012;10.030;2023-03-24T11:15:28;94172.25;;;17.38
31528;BMP280;10206;48.012;10.030;2023-03-24T11:17:55;94178.69;;;17.27
31528;BMP280;10206;48.012;10.030;2023-03-24T11:20:37;94178.97;;;17.51
31528;BMP280;10206;48.012;10.030;2023-03-24T11:25:40;94194.16;;;17.19
31528;BMP280;10206;48.012;10.030;2023-03-24T11:28:12;94188.44;;;17.46
31528;BMP280;10206;48.012;10.030;2023-03-24T11:30:48;94197.84;;;17.08
31528;BMP280;10206;48.012;10.030;2023-03-24T11:33:27;94199.75;;;16.88
31528;BMP280;10206;48.012;10.030;2023-03-24T11:35:54;94212.91;;;16.74
31528;BMP280;10206;48.012;10.030;2023-03-24T11:38:30;94215.56;;;16.72
31528;BMP280;10206;48.012;10.030;2023-03-24T11:41:01;94210.09;;;16.40
31528;BMP280;10206;48.012;10.030;2023-03-24T11:43:30;94229.13;;;16.21
31528;BMP280;10206;48.012;10.030;2023-03-24T11:48:45;94216.78;;;16.22
31528;BMP280;10206;48.012;10.030;2023-03-24T11:51:22;94221.16;;;16.42
31528;BMP280;10206;48.012;10.030;2023-03-24T11:53:51;94227.75;;;16.51
31528;BMP280;10206;48.012;10.030;2023-03-24T11:57:11;94216.47;;;16.45
31528;BMP280;10206;48.012;10.030;2023-03-24T11:59:49;94219.31;;;16.78
31528;BMP280;10206;48.012;10.030;2023-03-24T12:02:37;94225.16;;;16.39
31528;BMP280;10206;48.012;10.030;2023-03-24T12:05:20;94228.63;;;17.02
31528;BMP280;10206;48.012;10.030;2023-03-24T12:08:04;94218.47;;;17.07
31528;BMP280;10206;48.012;10.030;2023-03-24T12:10:43;94206.94;;;16.95
31528;BMP280;10206;48.012;10.030;2023-03-24T12:16:15;94214.16;;;16.71
31528;BMP280;10206;48.012;10.030;2023-03-24T12:21:47;94205.94;;;17.04
31528;BMP280;10206;48.012;10.030;2023-03-24T12:24:37;94192.91;;;16.89
31528;BMP280;10206;48.012;10.030;2023-03-24T12:41:41;94138.94;;;16.19
31528;BMP280;10206;48.012;10.030;2023-03-24T12:50:00;94142.31;;;16.18
31528;BMP280;10206;48.012;10.030;2023-03-24T12:55:16;94137.16;;;15.65
31528;BMP280;10206;48.012;10.030;2023-03-24T12:57:55;94140.66;;;15.52
31528;BMP280;10206;48.012;10.030;2023-03-24T13:00:27;94156.50;;;15.25
31528;BMP280;10206;48.012;10.030;2023-03-24T13:03:00;94166.34;;;15.43
31528;BMP280;10206;48.012;10.030;2023-03-24T13:05:32;94159.13;;;15.23
31528;BMP280;10206;48.012;10.030;2023-03-24T13:08:03;94156.13;;;15.46
31528;BMP280;10206;48.012;10.030;2023-03-24T13:10:34;94147.63;;;15.69
31528;BMP280;10206;48.012;10.030;2023-03-24T13:13:29;94134.13;;;15.59
31528;BMP280;10206;48.012;10.030;2023-03-24T13:16:21;94141.50;;;15.70
31528;BMP280;10206;48.012;10.030;2023-03-24T13:18:53;94154.78;;;15.90
31528;BMP280;10206;48.012;10.030;2023-03-24T13:21:24;94139.09;;;15.63
31528;BMP280;10206;48.012;10.030;2023-03-24T13:23:53;94140.31;;;15.89
31528;BMP280;10206;48.012;10.030;2023-03-24T13:26:51;94133.25;;;15.70
31528;BMP280;10206;48.012;10.030;2023-03-24T13:37:38;94133.84;;;15.53
31528;BMP280;10206;48.012;10.030;2023-03-24T13:40:19;94110.91;;;15.20
31528;BMP280;10206;48.012;10.030;2023-03-24T13:43:00;94111.63;;;15.94
31528;BMP280;10206;48.012;10.030;2023-03-24T13:45:47;94105.81;;;16.02
31528;BMP280;10206;48.012;10.030;2023-03-24T13:48:22;94131.13;;;16.29
31528;BMP280;10206;48.012;10.030;2023-03-24T13:51:03;94131.84;;;16.45
31528;BMP280;10206;48.012;10.030;2023-03-24T13:56:26;94143.25;;;16.87
31528;BMP280;10206;48.012;10.030;2023-03-24T14:04:20;94119.50;;;16.31
31528;BMP280;10206;48.012;10.030;2023-03-24T14:06:55;94119.91;;;16.10
31528;BMP280;10206;48.012;10.030;2023-03-24T14:09:29;94121.50;;;15.99
31528;BMP280;10206;48.012;10.030;2023-03-24T14:14:24;94126.06;;;15.63
31528;BMP280;10206;48.012;10.030;2023-03-24T14:17:12;94125.31;;;15.34
31528;BMP280;10206;48.012;10.030;2023-03-24T14:19:43;94128.84;;;14.94
31528;BMP280;10206;48.012;10.030;2023-03-24T14:22:21;94127.00;;;15.54
31528;BMP280;10206;48.012;10.030;2023-03-24T14:25:00;94141.78;;;15.47
31528;BMP280;10206;48.012;10.030;2023-03-24T14:27:34;94138.31;;;15.47
31528;BMP280;10206;48.012;10.030;2023-03-24T14:32:59;94143.59;;;15.14
31528;BMP280;10206;48.012;10.030;2023-03-24T14:35:33;94149.78;;;15.01
31528;BMP280;10206;48.012;10.030;2023-03-24T14:38:04;94154.34;;;15.23
31528;BMP280;10206;48.012;10.030;2023-03-24T14:40:37;94158.03;;;14.87
31528;BMP280;10206;48.012;10.030;2023-03-24T14:49:30;94163.16;;;14.93
31528;BMP280;10206;48.012;10.030;2023-03-24T14:52:11;94156.81;;;15.04
31528;BMP280;10206;48.012;10.030;2023-03-24T14:54:58;94154.09;;;14.76
31528;BMP280;10206;48.012;10.030;2023-03-24T14:57:33;94160.78;;;14.87
31528;BMP280;10206;48.012;10.030;2023-03-24T15:00:19;94160.78;;;14.87
31528;BMP280;10206;48.012;10.030;2023-03-24T15:05:24;94163.22;;;14.67
31528;BMP280;10206;48.012;10.030;2023-03-24T15:08:14;94154.13;;;14.38
31528;BMP280;10206;48.012;10.030;2023-03-24T15:11:05;94162.59;;;14.55
31528;BMP280;10206;48.012;10.030;2023-03-24T15:16:25;94163.88;;;14.27
31528;BMP280;10206;48.012;10.030;2023-03-24T15:19:39;94157.72;;;14.54
31528;BMP280;10206;48.012;10.030;2023-03-24T15:21:49;94160.56;;;14.56
31528;BMP280;10206;48.012;10.030;2023-03-24T15:26:51;94157.47;;;14.36
31528;BMP280;10206;48.012;10.030;2023-03-24T15:29:18;94146.25;;;14.57
31528;BMP280;10206;48.012;10.030;2023-03-24T15:31:44;94159.84;;;14.55
31528;BMP280;10206;48.012;10.030;2023-03-24T15:34:40;94149.31;;;14.25
31528;BMP280;10206;48.012;10.030;2023-03-24T15:37:20;94149.63;;;14.69
31528;BMP280;10206;48.012;10.030;2023-03-24T15:39:52;94145.41;;;14.55
31528;BMP280;10206;48.012;10.030;2023-03-24T15:42:21;94127.31;;;14.50
31528;BMP280;10206;48.012;10.030;2023-03-24T15:44:48;94127.78;;;14.19
31528;BMP280;10206;48.012;10.030;2023-03-24T15:47:28;94115.09;;;14.12
31528;BMP280;10206;48.012;10.030;2023-03-24T15:49:59;94106.78;;;14.24
31528;BMP280;10206;48.012;10.030;2023-03-24T15:57:41;94100.50;;;13.96
31528;BMP280;10206;48.012;10.030;2023-03-24T16:02:46;94106.09;;;13.98
31528;BMP280;10206;48.012;10.030;2023-03-24T16:05:33;94113.03;;;14.13
31528;BMP280;10206;48.012;10.030;2023-03-24T16:08:05;94115.13;;;13.87
31528;BMP280;10206;48.012;10.030;2023-03-24T16:10:35;94121.41;;;13.64
31528;BMP280;10206;48.012;10.030;2023-03-24T16:13:20;94123.78;;;13.58
31528;BMP280;10206;48.012;10.030;2023-03-24T16:18:37;94113.88;;;13.40
31528;BMP280;10206;48.012;10.030;2023-03-24T16:23:43;94128.41;;;13.05
31528;BMP280;10206;48.012;10.030;2023-03-24T16:26:18;94141.38;;;12.93
31528;BMP280;10206;48.012;10.030;2023-03-24T16:28:45;94137.34;;;13.43
31528;BMP280;10206;48.012;10.030;2023-03-24T16:31:23;94141.97;;;13.40
31528;BMP280;10206;48.012;10.030;2023-03-24T16:33:50;94143.09;;;13.23
31528;BMP280;10206;48.012;10.030;2023-03-24T16:36:17;94148.28;;;13.06
31528;BMP280;10206;48.012;10.030;2023-03-24T16:38:47;94140.22;;;13.33
31528;BMP280;10206;48.012;10.030;2023-03-24T16:41:14;94141.56;;;13.20
31528;BMP280;10206;48.012;10.030;2023-03-24T16:43:44;94136.06;;;13.32
31528;BMP280;10206;48.012;10.030;2023-03-24T16:46:15;94138.63;;;13.05
31528;BMP280;10206;48.012;10.030;2023-03-24T16:48:42;94137.25;;;13.29
31528;BMP280;10206;48.012;10.030;2023-03-24T16:51:15;94158.94;;;13.13
31528;BMP280;10206;48.012;10.030;2023-03-24T16:53:43;94141.13;;;12.89
31528;BMP280;10206;48.012;10.030;2023-03-24T16:56:11;94153.25;;;12.86
31528;BMP280;10206;48.012;10.030;2023-03-24T16:58:37;94149.94;;;12.65
31528;BMP280;10206;48.012;10.030;2023-03-24T17:01:15;94139.00;;;12.99
31528;BMP280;10206;48.012;10.030;2023-03-24T17:03:59;94151.38;;;12.77
31528;BMP280;10206;48.012;10.030;2023-03-24T17:06:27;94153.28;;;12.63